WetterOnline ( https://www.wetteronline.de )

Wetter aktuell Spessart (in 500m)

Aktuelles Wetter: Neuhütten/Spessart (340m)

6-stündlich | Neueste Meldungen
Ortszeit Temperatur Wetter
Mi, 12.05. 2:00 11.4° C Sprühregen
Di, 11.05. 20:00 12.1° C leichter Regen
Di, 11.05. 14:00 14.6° C bewölkt
Di, 11.05. 8:00 12.8° C wolkig
Di, 11.05. 2:00 11.8° C bedeckt
Mo, 10.05. 20:00 14.6° C Regen
Mo, 10.05. 14:00 19.7° C bewölkt
Mo, 10.05. 8:00 12.9° C bedeckt
Ortszeit Temperatur Wetter
Mi, 12.05. 4:30 10.8° C Sprühregen
Mi, 12.05. 4:20 10.8° C Sprühregen
Mi, 12.05. 4:10 10.9° C bedeckt
Mi, 12.05. 4:00 11.2° C bedeckt
Mi, 12.05. 3:50 11.2° C bedeckt
Mi, 12.05. 3:40 11.2° C bedeckt
Mi, 12.05. 3:30 11.2° C leichter Regen
Mi, 12.05. 3:00 11.2° C Sprühregen
Ortszeit Relative Feuchte Sichtweite
Mi, 12.05. 2:00 96% 8 km
Di, 11.05. 20:00 94% 23 km
Di, 11.05. 14:00 82% 60 km
Di, 11.05. 8:00 88% 30 km
Di, 11.05. 2:00 94% 25 km
Mo, 10.05. 20:00 78% >70 km
Mo, 10.05. 14:00 46% 60 km
Mo, 10.05. 8:00 80% 45 km
Ortszeit Relative Feuchte Sichtweite
Mi, 12.05. 4:30 95% 9 km
Mi, 12.05. 4:20 95% -
Mi, 12.05. 4:10 94% -
Mi, 12.05. 4:00 93% 12 km
Mi, 12.05. 3:50 93% -
Mi, 12.05. 3:40 95% -
Mi, 12.05. 3:30 96% 6 km
Mi, 12.05. 3:00 95% 11 km
Ortszeit Niederschlagsmenge Niederschlagsart
Mi, 12.05. 2:00 4 l/m2 in 6 Std. Regen
Di, 11.05. 20:00 1 l/m2 in 12 Std. Regen
Di, 11.05. 14:00 0.0 l/m2 in 6 Std. -
Di, 11.05. 8:00 0.2 l/m2 in 12 Std. Regen
Di, 11.05. 2:00 0.1 l/m2 in 6 Std. Regen
Mo, 10.05. 20:00 0.1 l/m2 in 12 Std. Regen
Mo, 10.05. 14:00 0.0 l/m2 in 6 Std. -
Mo, 10.05. 8:00 0.0 l/m2 in 12 Std. -
Ortszeit Niederschlagsmenge Niederschlagsart
Mi, 12.05. 4:30 0.1 l/m2 in 1 Std. -
Mi, 12.05. 4:20 keine Meldung -
Mi, 12.05. 4:10 keine Meldung -
Mi, 12.05. 4:00 0.1 l/m2 in 1 Std. Regen
Mi, 12.05. 3:50 keine Meldung -
Mi, 12.05. 3:40 keine Meldung -
Mi, 12.05. 3:30 0.1 l/m2 in 1 Std. -
Mi, 12.05. 3:00 0.2 l/m2 in 1 Std. Regen
Ortszeit Stärke Spitze Richtung
km/h Bft. km/h Grad Sektor
Mi, 12.05. 2:00 11 2 29 290° W
Di, 11.05. 20:00 14 3 25 270° W
Di, 11.05. 14:00 7 2 25 300° NW
Di, 11.05. 8:00 4 1 11 280° W
Di, 11.05. 2:00 4 1 18 290° W
Mo, 10.05. 20:00 7 2 40 290° W
Mo, 10.05. 14:00 25 4 47 250° W
Mo, 10.05. 8:00 7 2 14 70° O
Ortszeit Stärke Spitze Richtung
km/h Bft. km/h Grad Sektor
Mi, 12.05. 4:30 7 2 22 290° W
Mi, 12.05. 4:20 7 2 - 290° W
Mi, 12.05. 4:10 9 2 - 290° W
Mi, 12.05. 4:00 7 2 18 290° W
Mi, 12.05. 3:50 7 2 - 290° W
Mi, 12.05. 3:40 7 2 - 310° NW
Mi, 12.05. 3:30 6 1 15 300° NW
Mi, 12.05. 3:00 4 1 22 330° NW
Ortszeit Untergrenze Bedeckung Gattung
total tief tief mittel hoch
Mi, 12.05. 2:00 180 m 7/8 7/8 - - -
Di, 11.05. 20:00 240 m 8/8 8/8 - - -
Di, 11.05. 14:00 360 m 8/8 7/8 - - -
Di, 11.05. 8:00 210 m 8/8 3/8 - - -
Di, 11.05. 2:00 3900 m 8/8 8/8 - - -
Mo, 10.05. 20:00 2700 m 7/8 7/8 - - -
Mo, 10.05. 14:00 3600 m 7/8 7/8 - - -
Mo, 10.05. 8:00 3000 m 8/8 8/8 - - -
Ortszeit Bedeckungsgrad in Achtel und Wolkenuntergrenze
Mi, 12.05. 4:30 3(270m) 4(510m) 8(1110m)
Mi, 12.05. 4:20 3(270m) 4(510m) 8(1110m)
Mi, 12.05. 4:10 2(240m) 4(480m) 8(1110m)
Mi, 12.05. 4:00 3(210m) 7(540m) 8(1230m)
Mi, 12.05. 3:50 3(210m) 7(540m) 8(1230m)
Mi, 12.05. 3:40 4(210m) 7(480m) 8(870m)
Mi, 12.05. 3:30 6(240m) 7(390m) 8(720m)
Mi, 12.05. 3:00 4(240m) 7(480m) 8(960m)
Ortszeit Luftdruck NN (hPa) Tendenz (hPa in 3 Std.)
Mi, 12.05. 2:00 1010 + 0,1
Di, 11.05. 20:00 1009 + 1,0
Di, 11.05. 14:00 1007 + 0,1
Di, 11.05. 8:00 1008 - 0,1
Di, 11.05. 2:00 1010 - 0,6
Mo, 10.05. 20:00 1010 - 0,3
Mo, 10.05. 14:00 1009 + 1,7
Mo, 10.05. 8:00 1007 + 1,8
Ortszeit Luftdruck NN (hPa) Tendenz (hPa in 3 Std.)
Mi, 12.05. 4:30 1011 + 0,5
Mi, 12.05. 4:20 1011 keine Meldung
Mi, 12.05. 4:10 1011 keine Meldung
Mi, 12.05. 4:00 1011 + 0,2
Mi, 12.05. 3:50 1011 keine Meldung
Mi, 12.05. 3:40 1010 keine Meldung
Mi, 12.05. 3:30 1010 - 0,1
Mi, 12.05. 3:00 1010 + 0,2
Ortszeit Schneehöhe (cm)
Mi, 12.05. 2:00 0
Di, 11.05. 20:00 0
Di, 11.05. 14:00 0
Di, 11.05. 8:00 0
Di, 11.05. 2:00 0
Mo, 10.05. 20:00 0
Mo, 10.05. 14:00 0
Mo, 10.05. 8:00 0
Ortszeit Schneehöhe (cm)
Mi, 12.05. 4:30 0
Mi, 12.05. 4:20 0
Mi, 12.05. 4:10 0
Mi, 12.05. 4:00 0
Mi, 12.05. 3:50 0
Mi, 12.05. 3:40 0
Mi, 12.05. 3:30 0
Mi, 12.05. 3:00 0
Link zu dieser Seite / Seite empfehlen

Das Wetter in ...